Time;durP1;ratioP1;P1;durP2;ratioP2;P2;SDS_P1;SDS_P2;PMS_P1;PMS_P2;Temp;Humidity;BMP_temperature;BMP_pressure;BME280_temperature;BME280_humidity;BME280_pressure;Samples;Min_cycle;Max_cycle;Signal;HPM_P1;HPM_P2
2021/03/31 00:02:49;;;;;;;;;;;8.40;99.90;;;;;;7016602;27;20005;-66
2021/03/31 00:06:10;;;;;;;;;;;8.50;99.90;;;;;;7032204;27;20281;-67
2021/03/31 00:09:32;;;;;;;;;;;8.40;99.90;;;;;;7016710;27;20359;-67
2021/03/31 00:12:53;;;;;;;;;;;8.30;99.90;;;;;;7037324;27;19911;-67
2021/03/31 00:16:13;;;;;;;;;;;8.20;99.90;;;;;;7009115;27;20264;-67
2021/03/31 00:19:34;;;;;;;;;;;8.20;99.90;;;;;;7020211;27;19912;-66
2021/03/31 00:22:55;;;;;;;;;;;8.20;99.90;;;;;;7023412;28;19912;-69
2021/03/31 00:26:16;;;;;;;;;;;8.10;99.90;;;;;;7030499;28;19916;-66
2021/03/31 00:29:36;;;;;;;;;;;8.10;99.90;;;;;;7011303;27;19911;-66
2021/03/31 00:32:57;;;;;;;;;;;8.10;99.90;;;;;;7015805;27;19912;-69
2021/03/31 00:36:18;;;;;;;;;;;8.00;99.90;;;;;;7027958;27;19935;-69
2021/03/31 00:39:39;;;;;;;;;;;7.80;99.90;;;;;;7027900;28;19957;-69
2021/03/31 00:43:00;;;;;;;;;;;7.90;99.90;;;;;;7009148;28;19915;-69
2021/03/31 00:46:21;;;;;;;;;;;7.90;99.90;;;;;;7007028;28;19912;-67
2021/03/31 00:49:41;;;;;;;;;;;7.90;99.90;;;;;;7023955;27;19937;-68
2021/03/31 00:53:02;;;;;;;;;;;7.90;99.90;;;;;;7011756;27;19919;-69
2021/03/31 00:56:23;;;;;;;;;;;7.90;99.90;;;;;;7046999;27;19912;-68
2021/03/31 00:59:44;;;;;;;;;;;7.80;99.90;;;;;;7017982;27;20378;-69
2021/03/31 01:03:06;;;;;;;;;;;7.70;99.90;;;;;;7007740;27;19915;-69
2021/03/31 01:06:26;;;;;;;;;;;7.60;99.90;;;;;;7011775;28;19920;-69
2021/03/31 01:09:48;;;;;;;;;;;7.60;99.90;;;;;;7053507;27;19919;-68
2021/03/31 01:13:18;;;;;;;;;;;7.60;99.90;;;;;;7024026;27;19911;-69
2021/03/31 01:16:44;;;;;;;;;;;7.60;99.90;;;;;;7045296;27;20431;-69
2021/03/31 01:20:22;;;;;;;;;;;7.40;99.90;;;;;;7032674;27;20407;-69
2021/03/31 01:24:01;;;;;;;;;;;7.40;99.90;;;;;;7028386;27;20267;-69
2021/03/31 01:27:41;;;;;;;;;;;7.30;99.90;;;;;;7017955;27;20010;-69
2021/03/31 01:31:21;;;;;;;;;;;7.20;99.90;;;;;;7002186;28;19927;-67
2021/03/31 01:34:44;;;;;;;;;;;7.20;99.90;;;;;;7009993;27;20312;-66
2021/03/31 01:38:06;;;;;;;;;;;7.20;99.90;;;;;;7022344;27;19999;-66
2021/03/31 01:41:28;;;;;;;;;;;7.20;99.90;;;;;;7021368;27;20283;-69
2021/03/31 01:44:50;;;;;;;;;;;7.20;99.90;;;;;;7030608;27;19923;-68
2021/03/31 01:48:13;;;;;;;;;;;7.10;99.90;;;;;;7011583;27;19916;-69
2021/03/31 01:51:35;;;;;;;;;;;7.00;99.90;;;;;;7017871;28;19932;-66
2021/03/31 01:54:57;;;;;;;;;;;7.00;99.90;;;;;;7020944;27;19919;-68
2021/03/31 01:58:19;;;;;;;;;;;7.00;99.90;;;;;;7014023;27;19911;-66
2021/03/31 02:01:40;;;;;;;;;;;7.00;99.90;;;;;;7026186;28;19920;-66
2021/03/31 02:05:02;;;;;;;;;;;7.00;99.90;;;;;;7025312;27;19919;-68
2021/03/31 02:08:23;;;;;;;;;;;6.90;99.90;;;;;;7031712;27;20261;-67
2021/03/31 02:11:45;;;;;;;;;;;6.90;99.90;;;;;;7031662;27;19912;-66
2021/03/31 02:15:06;;;;;;;;;;;6.80;99.90;;;;;;7029399;28;19957;-68
2021/03/31 02:18:30;;;;;;;;;;;6.80;99.90;;;;;;7013107;27;19912;-67
2021/03/31 02:21:51;;;;;;;;;;;6.70;99.90;;;;;;7015720;27;19922;-66
2021/03/31 02:25:12;;;;;;;;;;;6.70;99.90;;;;;;7019962;27;19951;-69
2021/03/31 02:28:33;;;;;;;;;;;6.70;99.90;;;;;;7012366;27;20006;-67
2021/03/31 02:31:55;;;;;;;;;;;6.60;99.90;;;;;;7009933;27;20256;-67
2021/03/31 02:35:16;;;;;;;;;;;6.60;99.90;;;;;;7045448;27;20006;-67
2021/03/31 02:38:37;;;;;;;;;;;6.60;99.90;;;;;;7003469;27;19912;-66
2021/03/31 02:41:59;;;;;;;;;;;6.50;99.90;;;;;;7027899;27;19943;-66
2021/03/31 02:45:21;;;;;;;;;;;6.50;99.90;;;;;;7019395;28;19931;-66
2021/03/31 02:48:43;;;;;;;;;;;6.40;99.90;;;;;;7047575;27;20062;-66
2021/03/31 02:52:04;;;;;;;;;;;6.40;99.90;;;;;;7015257;27;19912;-67
2021/03/31 02:55:26;;;;;;;;;;;6.40;99.90;;;;;;7011865;27;20298;-67
2021/03/31 02:58:47;;;;;;;;;;;6.40;99.90;;;;;;7009195;27;19915;-66
2021/03/31 03:02:08;;;;;;;;;;;6.40;99.90;;;;;;7019750;27;19943;-67
2021/03/31 03:05:29;;;;;;;;;;;6.30;99.90;;;;;;7001205;27;19914;-66
2021/03/31 03:08:51;;;;;;;;;;;6.30;99.90;;;;;;7007038;27;20272;-66
2021/03/31 03:12:12;;;;;;;;;;;6.10;99.90;;;;;;7012448;27;19915;-69
2021/03/31 03:15:34;;;;;;;;;;;6.10;99.90;;;;;;7017382;27;20271;-69
2021/03/31 03:18:55;;;;;;;;;;;6.10;99.90;;;;;;7004701;28;19912;-69
2021/03/31 03:22:17;;;;;;;;;;;6.30;99.90;;;;;;7011801;27;20279;-66
2021/03/31 03:25:38;;;;;;;;;;;6.40;99.90;;;;;;7011508;27;20359;-67
2021/03/31 03:28:59;;;;;;;;;;;6.40;99.90;;;;;;6997668;28;19924;-66
2021/03/31 03:32:19;;;;;;;;;;;6.30;99.90;;;;;;6993933;28;20474;-67
2021/03/31 03:35:40;;;;;;;;;;;6.20;99.90;;;;;;7014767;28;19973;-67
2021/03/31 03:39:03;;;;;;;;;;;6.20;99.90;;;;;;7017528;28;19915;-67
2021/03/31 03:42:24;;;;;;;;;;;6.20;99.90;;;;;;7020781;28;20364;-66
2021/03/31 03:45:46;;;;;;;;;;;6.20;99.90;;;;;;7019820;28;19915;-69
2021/03/31 03:49:07;;;;;;;;;;;6.20;99.90;;;;;;7031734;28;19915;-69
2021/03/31 03:52:28;;;;;;;;;;;6.20;99.90;;;;;;7017458;28;19915;-69
2021/03/31 03:55:49;;;;;;;;;;;6.10;99.90;;;;;;7013352;28;19911;-68
2021/03/31 03:59:17;;;;;;;;;;;6.20;99.90;;;;;;7014144;28;19941;-66
2021/03/31 04:02:38;;;;;;;;;;;6.10;99.90;;;;;;7009440;28;19948;-66
2021/03/31 04:06:02;;;;;;;;;;;6.10;99.90;;;;;;6998077;28;19912;-66
2021/03/31 04:09:22;;;;;;;;;;;6.20;99.90;;;;;;7022732;28;19922;-65
2021/03/31 04:12:43;;;;;;;;;;;6.30;99.90;;;;;;7018011;28;20580;-67
2021/03/31 04:16:07;;;;;;;;;;;6.40;99.90;;;;;;7015004;28;19923;-69
2021/03/31 04:19:28;;;;;;;;;;;6.40;99.90;;;;;;7022367;28;19911;-66
2021/03/31 04:22:49;;;;;;;;;;;6.40;99.90;;;;;;7021143;28;19911;-67
2021/03/31 04:26:11;;;;;;;;;;;6.30;99.90;;;;;;6995318;28;20256;-66
2021/03/31 04:29:32;;;;;;;;;;;6.10;99.90;;;;;;7032699;28;20340;-68
2021/03/31 04:32:54;;;;;;;;;;;6.10;99.90;;;;;;6999679;28;19912;-69
2021/03/31 04:36:15;;;;;;;;;;;6.20;99.90;;;;;;7000523;27;19934;-66
2021/03/31 04:39:36;;;;;;;;;;;6.10;99.90;;;;;;6998665;27;20339;-66
2021/03/31 04:42:57;;;;;;;;;;;6.10;99.90;;;;;;7010127;28;21186;-67
2021/03/31 04:46:18;;;;;;;;;;;6.00;99.90;;;;;;7009534;28;19969;-67
2021/03/31 04:49:39;;;;;;;;;;;5.90;99.90;;;;;;7009641;27;19915;-69
2021/03/31 04:52:59;;;;;;;;;;;5.80;99.90;;;;;;7004449;27;19920;-67
2021/03/31 04:56:21;;;;;;;;;;;5.80;99.90;;;;;;7007029;27;19927;-67
2021/03/31 04:59:41;;;;;;;;;;;5.70;99.90;;;;;;6999393;27;19912;-67
2021/03/31 05:03:03;;;;;;;;;;;5.70;99.90;;;;;;7019559;27;19919;-66
2021/03/31 05:06:23;;;;;;;;;;;5.70;99.90;;;;;;7022244;27;20024;-66
2021/03/31 05:09:44;;;;;;;;;;;5.70;99.90;;;;;;7018636;27;19912;-67
2021/03/31 05:13:05;;;;;;;;;;;5.70;99.90;;;;;;7006830;27;19927;-68
2021/03/31 05:16:26;;;;;;;;;;;5.70;99.90;;;;;;7034896;27;19912;-67
2021/03/31 05:19:46;;;;;;;;;;;5.60;99.90;;;;;;7024112;27;19955;-67
2021/03/31 05:23:07;;;;;;;;;;;5.50;99.90;;;;;;7019158;27;20449;-69
2021/03/31 05:26:28;;;;;;;;;;;5.60;99.90;;;;;;7022854;28;19961;-68
2021/03/31 05:29:49;;;;;;;;;;;5.60;99.90;;;;;;7018179;27;20319;-70
2021/03/31 05:33:10;;;;;;;;;;;5.70;99.90;;;;;;7037304;27;19921;-69
2021/03/31 05:36:31;;;;;;;;;;;5.70;99.90;;;;;;7021897;27;19911;-69
2021/03/31 05:39:51;;;;;;;;;;;5.60;99.90;;;;;;7035272;27;19911;-69
2021/03/31 05:43:14;;;;;;;;;;;5.70;99.90;;;;;;7061552;27;19919;-68
2021/03/31 05:46:39;;;;;;;;;;;5.70;99.90;;;;;;7012880;27;20343;-67
2021/03/31 05:50:00;;;;;;;;;;;5.70;99.90;;;;;;7023838;27;20379;-68
2021/03/31 05:53:20;;;;;;;;;;;5.80;99.90;;;;;;7019238;27;19911;-68
2021/03/31 05:56:42;;;;;;;;;;;5.90;99.90;;;;;;7030782;27;19939;-65
2021/03/31 06:00:06;;;;;;;;;;;5.90;99.90;;;;;;7014551;27;19934;-67
2021/03/31 06:03:33;;;;;;;;;;;6.00;99.90;;;;;;7021554;27;19968;-68
2021/03/31 06:06:53;;;;;;;;;;;6.00;99.90;;;;;;7016942;27;19920;-67
2021/03/31 06:10:14;;;;;;;;;;;6.00;99.90;;;;;;6996832;27;20561;-66
2021/03/31 06:13:47;;;;;;;;;;;6.10;99.90;;;;;;7023966;27;19915;-67
2021/03/31 06:17:10;;;;;;;;;;;6.20;99.90;;;;;;7021059;27;19998;-67
2021/03/31 06:20:35;;;;;;;;;;;6.30;99.90;;;;;;7021042;27;19976;-67
2021/03/31 06:24:02;;;;;;;;;;;6.40;99.90;;;;;;7033362;27;20003;-68
2021/03/31 06:27:28;;;;;;;;;;;6.60;99.90;;;;;;7020124;27;20038;-67
2021/03/31 06:30:49;;;;;;;;;;;6.70;99.90;;;;;;7015365;27;19930;-66
2021/03/31 06:34:17;;;;;;;;;;;6.90;99.90;;;;;;7009438;27;19920;-67
2021/03/31 06:37:38;;;;;;;;;;;7.10;99.90;;;;;;7001643;27;19911;-67
2021/03/31 06:41:10;;;;;;;;;;;7.20;99.90;;;;;;7015899;27;20398;-67
2021/03/31 06:45:06;;;;;;;;;;;7.40;99.90;;;;;;7014935;28;19916;-66
2021/03/31 06:48:22;;;;;;;;;;;7.60;99.90;;;;;;7023915;27;19922;-67
2021/03/31 06:51:43;;;;;;;;;;;7.70;99.90;;;;;;7015127;27;19912;-67
2021/03/31 06:55:04;;;;;;;;;;;7.90;99.90;;;;;;7001644;27;19965;-68
2021/03/31 06:58:25;;;;;;;;;;;8.10;99.90;;;;;;7025767;27;19941;-68
2021/03/31 07:01:47;;;;;;;;;;;8.30;99.90;;;;;;7019991;27;20303;-69
2021/03/31 07:05:08;;;;;;;;;;;8.60;99.90;;;;;;7018849;28;20249;-69
2021/03/31 07:08:34;;;;;;;;;;;8.80;99.90;;;;;;7008547;27;19915;-67
2021/03/31 07:11:55;;;;;;;;;;;9.10;99.90;;;;;;7016120;28;19912;-67
2021/03/31 07:15:17;;;;;;;;;;;9.40;99.90;;;;;;7008093;28;20363;-66
2021/03/31 07:18:38;;;;;;;;;;;9.70;99.90;;;;;;7006556;28;19919;-67
2021/03/31 07:21:59;;;;;;;;;;;10.00;99.90;;;;;;7022547;27;19916;-67
2021/03/31 07:25:23;;;;;;;;;;;10.30;99.90;;;;;;7014713;28;19931;-67
2021/03/31 07:28:44;;;;;;;;;;;10.60;99.90;;;;;;7005961;28;19920;-70
2021/03/31 07:32:06;;;;;;;;;;;10.90;99.90;;;;;;7018739;28;19912;-66
2021/03/31 07:35:28;;;;;;;;;;;11.30;99.90;;;;;;7018279;28;19943;-67
2021/03/31 07:38:51;;;;;;;;;;;11.50;99.90;;;;;;7006568;28;19911;-69
2021/03/31 07:42:12;;;;;;;;;;;11.80;99.90;;;;;;7028726;28;20309;-68
2021/03/31 07:45:36;;;;;;;;;;;12.10;99.90;;;;;;7006571;28;19918;-69
2021/03/31 07:48:58;;;;;;;;;;;12.60;99.90;;;;;;7024669;28;19916;-69
2021/03/31 07:52:19;;;;;;;;;;;13.10;99.90;;;;;;7012411;28;20022;-69
2021/03/31 07:55:44;;;;;;;;;;;13.50;99.90;;;;;;7045619;28;20228;-67
2021/03/31 07:59:07;;;;;;;;;;;14.10;99.90;;;;;;7019312;28;19912;-68
2021/03/31 08:02:28;;;;;;;;;;;14.40;99.90;;;;;;7007036;28;19916;-67
2021/03/31 08:06:05;;;;;;;;;;;14.70;99.90;;;;;;7002208;28;19946;-67
2021/03/31 08:09:28;;;;;;;;;;;15.00;99.90;;;;;;7031989;27;19923;-67
2021/03/31 08:12:49;;;;;;;;;;;15.30;99.90;;;;;;7032424;27;19918;-68
2021/03/31 08:16:23;;;;;;;;;;;15.60;99.90;;;;;;7020483;27;20010;-68
2021/03/31 08:19:48;;;;;;;;;;;15.80;99.90;;;;;;7036133;27;19912;-69
2021/03/31 08:23:10;;;;;;;;;;;16.00;97.90;;;;;;7028691;27;19915;-68
2021/03/31 08:26:37;;;;;;;;;;;16.30;96.20;;;;;;7035268;27;19920;-68
2021/03/31 08:30:00;;;;;;;;;;;16.40;95.40;;;;;;7062018;27;19923;-68
2021/03/31 08:33:21;;;;;;;;;;;16.50;94.60;;;;;;7027633;27;19919;-69
2021/03/31 08:36:42;;;;;;;;;;;16.70;94.90;;;;;;7019408;27;19915;-68
2021/03/31 08:40:05;;;;;;;;;;;16.80;94.00;;;;;;7026443;27;19911;-69
2021/03/31 08:43:28;;;;;;;;;;;17.10;92.70;;;;;;7061174;27;19922;-68
2021/03/31 08:46:53;;;;;;;;;;;17.20;91.50;;;;;;7025949;27;20064;-67
2021/03/31 08:50:23;;;;;;;;;;;17.30;91.10;;;;;;7026439;27;19916;-69
2021/03/31 08:53:44;;;;;;;;;;;17.40;90.00;;;;;;7035765;27;19922;-69
2021/03/31 08:57:07;;;;;;;;;;;17.60;89.20;;;;;;7012049;27;19916;-69
2021/03/31 09:00:28;;;;;;;;;;;17.80;88.30;;;;;;7030747;27;19912;-68
2021/03/31 09:03:48;;;;;;;;;;;18.20;87.30;;;;;;7018796;27;19915;-68
2021/03/31 09:07:10;;;;;;;;;;;18.60;87.30;;;;;;7023680;28;19920;-68
2021/03/31 09:10:31;;;;;;;;;;;18.90;84.60;;;;;;7021898;27;19986;-67
2021/03/31 09:13:52;;;;;;;;;;;19.00;85.60;;;;;;7011413;27;19918;-67
2021/03/31 09:17:25;;;;;;;;;;;19.10;84.10;;;;;;7008057;27;20903;-68
2021/03/31 09:20:46;;;;;;;;;;;19.10;85.00;;;;;;7030796;27;20412;-67
2021/03/31 09:24:12;;;;;;;;;;;19.20;85.30;;;;;;7022594;27;19919;-68
2021/03/31 09:27:33;;;;;;;;;;;19.40;84.80;;;;;;7019888;27;20403;-68
2021/03/31 09:30:57;;;;;;;;;;;19.40;81.70;;;;;;7020481;27;20267;-70
2021/03/31 09:34:18;;;;;;;;;;;19.50;83.90;;;;;;7015741;27;19943;-69
2021/03/31 09:37:43;;;;;;;;;;;19.50;84.30;;;;;;7005487;27;19981;-69
2021/03/31 09:41:05;;;;;;;;;;;19.80;85.10;;;;;;7019351;27;19965;-69
2021/03/31 09:44:26;;;;;;;;;;;20.20;85.30;;;;;;7012723;28;19919;-70
2021/03/31 09:47:46;;;;;;;;;;;20.40;85.20;;;;;;7017767;28;20314;-67
2021/03/31 09:51:13;;;;;;;;;;;20.60;84.30;;;;;;7021080;28;19916;-67
2021/03/31 09:54:34;;;;;;;;;;;20.90;82.80;;;;;;7022067;28;20359;-68
2021/03/31 09:57:56;;;;;;;;;;;21.30;83.40;;;;;;7031815;27;19912;-69
2021/03/31 10:01:17;;;;;;;;;;;21.80;84.30;;;;;;7016346;28;19919;-69
2021/03/31 10:04:41;;;;;;;;;;;22.20;83.20;;;;;;7003960;28;19957;-68
2021/03/31 10:08:04;;;;;;;;;;;22.40;83.40;;;;;;7017483;27;20049;-70
2021/03/31 10:11:24;;;;;;;;;;;22.40;80.30;;;;;;7022529;27;20425;-70
2021/03/31 10:14:48;;;;;;;;;;;22.30;82.90;;;;;;7019184;28;19912;-69
2021/03/31 10:18:12;;;;;;;;;;;22.20;83.60;;;;;;7005996;27;20364;-69
2021/03/31 10:21:34;;;;;;;;;;;22.10;84.70;;;;;;7018147;27;19916;-69
2021/03/31 10:24:54;;;;;;;;;;;22.30;80.80;;;;;;7017396;27;19912;-68
2021/03/31 10:28:34;;;;;;;;;;;22.20;81.90;;;;;;7018124;27;19922;-68
2021/03/31 10:31:58;;;;;;;;;;;22.50;81.90;;;;;;7008128;27;20141;-67
2021/03/31 10:35:37;;;;;;;;;;;22.90;81.50;;;;;;7031172;27;19908;-66
2021/03/31 10:50:08;;;;;;;;;;;26.60;76.80;;;;;;7014794;28;19955;-68
2021/03/31 10:53:33;;;;;;;;;;;29.10;68.40;;;;;;7001454;27;19961;-69
2021/03/31 10:57:04;;;;;;;;;;;30.50;67.40;;;;;;7002275;27;19912;-69
2021/03/31 11:00:25;;;;;;;;;;;32.00;67.10;;;;;;7001476;27;20025;-69
2021/03/31 11:03:46;;;;;;;;;;;32.90;60.10;;;;;;7006778;28;19911;-69
2021/03/31 11:07:06;;;;;;;;;;;33.80;61.20;;;;;;7005173;27;19947;-69
2021/03/31 11:10:27;;;;;;;;;;;33.80;60.20;;;;;;7006843;27;20279;-69
2021/03/31 11:13:48;;;;;;;;;;;34.40;58.30;;;;;;7033525;27;19915;-69
2021/03/31 11:17:22;;;;;;;;;;;35.50;57.00;;;;;;7026013;27;20511;-69
2021/03/31 11:28:02;;;;;;;;;;;37.30;55.20;;;;;;7009590;27;19952;-69
2021/03/31 11:31:24;;;;;;;;;;;37.30;53.40;;;;;;7017212;28;19916;-69
2021/03/31 11:34:45;;;;;;;;;;;37.70;54.10;;;;;;7008383;28;19919;-69
2021/03/31 11:38:06;;;;;;;;;;;38.90;52.30;;;;;;6993971;28;20364;-66
2021/03/31 11:41:27;;;;;;;;;;;40.10;51.40;;;;;;6997705;28;19918;-65
2021/03/31 11:44:49;;;;;;;;;;;39.90;51.20;;;;;;7038566;27;19912;-66
2021/03/31 11:48:10;;;;;;;;;;;41.90;50.10;;;;;;7022991;27;19966;-66
2021/03/31 11:51:31;;;;;;;;;;;42.70;50.10;;;;;;7003397;28;19912;-65
2021/03/31 11:54:51;;;;;;;;;;;40.90;49.40;;;;;;7006513;27;19912;-67
2021/03/31 11:58:12;;;;;;;;;;;41.60;49.00;;;;;;7030707;27;20268;-67
2021/03/31 12:01:34;;;;;;;;;;;43.30;49.00;;;;;;7020327;27;19919;-67
2021/03/31 12:04:55;;;;;;;;;;;44.00;46.50;;;;;;7027716;27;20375;-66
2021/03/31 12:08:17;;;;;;;;;;;43.50;45.20;;;;;;7017825;27;19918;-67
2021/03/31 12:11:38;;;;;;;;;;;43.40;44.80;;;;;;7018909;28;21281;-66
2021/03/31 12:14:59;;;;;;;;;;;43.40;44.20;;;;;;7022889;27;20279;-67
2021/03/31 12:18:19;;;;;;;;;;;43.30;44.30;;;;;;7027713;27;19925;-67
2021/03/31 12:21:40;;;;;;;;;;;43.40;43.60;;;;;;7036639;27;19948;-67
2021/03/31 12:25:01;;;;;;;;;;;44.30;42.40;;;;;;7028447;27;20291;-67
2021/03/31 12:28:26;;;;;;;;;;;44.60;41.20;;;;;;7026540;27;19915;-67
2021/03/31 12:31:46;;;;;;;;;;;45.40;41.00;;;;;;7022801;27;19942;-67
2021/03/31 12:35:08;;;;;;;;;;;45.60;39.80;;;;;;7038143;27;19918;-67
2021/03/31 12:38:29;;;;;;;;;;;44.30;39.90;;;;;;7018475;27;19970;-67
2021/03/31 12:41:49;;;;;;;;;;;44.80;39.30;;;;;;7023809;27;20038;-67
2021/03/31 12:45:11;;;;;;;;;;;45.90;37.80;;;;;;7010494;27;19915;-67
2021/03/31 12:48:31;;;;;;;;;;;47.30;38.50;;;;;;7002267;27;19957;-68
2021/03/31 12:52:00;;;;;;;;;;;47.10;39.90;;;;;;7010046;27;19934;-68
2021/03/31 12:55:27;;;;;;;;;;;49.30;39.60;;;;;;7018068;27;19911;-68
2021/03/31 12:58:48;;;;;;;;;;;46.40;36.70;;;;;;7013636;27;19919;-67
2021/03/31 13:02:26;;;;;;;;;;;45.80;37.00;;;;;;7034896;27;19916;-67
2021/03/31 13:05:47;;;;;;;;;;;46.40;37.90;;;;;;7008985;27;19912;-67
2021/03/31 13:09:08;;;;;;;;;;;48.50;35.90;;;;;;7033560;27;19912;-66
2021/03/31 13:13:06;;;;;;;;;;;47.60;36.90;;;;;;7005179;27;19967;-67
2021/03/31 13:16:27;;;;;;;;;;;46.70;37.70;;;;;;7014075;27;19959;-68
2021/03/31 13:33:54;;;;;;;;;;;47.80;36.40;;;;;;7033822;27;19916;-68
2021/03/31 13:37:37;;;;;;;;;;;47.80;35.30;;;;;;7007634;27;19926;-68
2021/03/31 13:40:58;;;;;;;;;;;48.10;36.10;;;;;;7019326;27;19915;-68
2021/03/31 13:44:19;;;;;;;;;;;47.80;36.60;;;;;;7027362;28;20011;-68
2021/03/31 13:47:50;;;;;;;;;;;48.60;34.50;;;;;;7025781;27;19922;-68
2021/03/31 13:51:12;;;;;;;;;;;47.50;33.80;;;;;;7003885;27;19912;-68
2021/03/31 13:54:39;;;;;;;;;;;48.00;33.30;;;;;;7035412;27;19922;-68
2021/03/31 13:58:02;;;;;;;;;;;48.50;33.40;;;;;;7019497;27;20165;-67
2021/03/31 14:01:23;;;;;;;;;;;46.20;31.50;;;;;;7039925;27;20313;-67
2021/03/31 14:04:44;;;;;;;;;;;45.20;34.60;;;;;;7005073;28;19957;-67
2021/03/31 14:08:05;;;;;;;;;;;44.40;34.60;;;;;;7005353;28;19920;-67
2021/03/31 14:11:26;;;;;;;;;;;44.10;35.50;;;;;;7022442;27;19912;-67
2021/03/31 14:14:47;;;;;;;;;;;44.80;35.80;;;;;;7032409;27;19916;-67
2021/03/31 14:18:07;;;;;;;;;;;44.20;35.60;;;;;;7012703;27;19976;-67
2021/03/31 14:21:28;;;;;;;;;;;42.90;32.90;;;;;;7013205;28;19912;-65
2021/03/31 14:24:49;;;;;;;;;;;43.50;33.80;;;;;;7013451;27;20008;-67
2021/03/31 14:28:10;;;;;;;;;;;40.80;33.70;;;;;;7012026;27;19916;-67
2021/03/31 14:31:34;;;;;;;;;;;39.90;34.30;;;;;;7011085;28;19916;-65
2021/03/31 14:34:55;;;;;;;;;;;39.70;33.20;;;;;;7011873;28;19994;-65
2021/03/31 14:38:22;;;;;;;;;;;39.40;33.80;;;;;;7003961;27;19916;-67
2021/03/31 14:41:43;;;;;;;;;;;38.40;35.10;;;;;;7034253;27;19918;-65
2021/03/31 14:45:05;;;;;;;;;;;38.80;36.30;;;;;;7003003;28;20062;-65
2021/03/31 14:48:26;;;;;;;;;;;39.40;36.70;;;;;;7005079;28;19911;-65
2021/03/31 15:02:29;;;;;;;;;;;37.20;39.40;;;;;;7026450;27;19955;-67
2021/03/31 15:05:50;;;;;;;;;;;36.40;39.20;;;;;;7026010;27;20150;-67
2021/03/31 15:09:11;;;;;;;;;;;36.30;37.80;;;;;;7031992;27;19923;-67
2021/03/31 15:12:32;;;;;;;;;;;35.50;39.10;;;;;;7021449;27;19911;-65
2021/03/31 15:15:53;;;;;;;;;;;35.00;41.20;;;;;;7000953;27;19912;-67
2021/03/31 15:19:40;;;;;;;;;;;35.00;40.90;;;;;;6999779;28;19953;-66
2021/03/31 15:26:35;;;;;;;;;;;35.70;38.50;;;;;;7014948;28;19916;-68
2021/03/31 15:29:57;;;;;;;;;;;35.30;39.60;;;;;;6995965;28;20334;-67
2021/03/31 15:33:18;;;;;;;;;;;34.20;40.30;;;;;;7052078;28;20338;-68
2021/03/31 15:36:39;;;;;;;;;;;33.40;40.50;;;;;;7026096;28;20391;-67
2021/03/31 15:40:00;;;;;;;;;;;33.10;40.00;;;;;;7006250;28;19920;-68
2021/03/31 15:43:21;;;;;;;;;;;32.60;39.40;;;;;;7014346;28;19957;-68
2021/03/31 15:46:55;;;;;;;;;;;32.40;41.50;;;;;;7020240;28;19916;-67
2021/03/31 15:50:16;;;;;;;;;;;31.60;41.00;;;;;;7005556;28;20249;-67
2021/03/31 15:53:37;;;;;;;;;;;31.10;41.40;;;;;;6999566;28;19966;-67
2021/03/31 15:56:58;;;;;;;;;;;30.20;43.60;;;;;;6991009;28;19916;-67
2021/03/31 16:00:19;;;;;;;;;;;29.30;41.10;;;;;;7000114;28;20006;-67
2021/03/31 16:03:45;;;;;;;;;;;28.80;44.20;;;;;;6989060;28;19972;-67
2021/03/31 16:10:45;;;;;;;;;;;27.80;49.30;;;;;;7023774;28;20340;-65
2021/03/31 16:14:06;;;;;;;;;;;27.30;44.70;;;;;;6992679;28;19923;-65
2021/03/31 16:17:28;;;;;;;;;;;27.20;49.70;;;;;;6993244;28;19943;-68
2021/03/31 16:20:58;;;;;;;;;;;26.50;50.30;;;;;;7004505;28;19939;-66
2021/03/31 16:24:19;;;;;;;;;;;26.00;48.90;;;;;;6994405;28;20080;-67
2021/03/31 16:31:25;;;;;;;;;;;25.40;54.80;;;;;;7028782;27;19919;-67
2021/03/31 16:34:46;;;;;;;;;;;25.00;51.10;;;;;;7045310;28;19964;-67
2021/03/31 16:38:09;;;;;;;;;;;24.80;53.80;;;;;;7025940;27;19916;-65
2021/03/31 16:41:30;;;;;;;;;;;24.60;53.60;;;;;;7037585;27;20344;-65
2021/03/31 16:44:50;;;;;;;;;;;24.30;56.40;;;;;;7022577;28;19924;-67
2021/03/31 16:48:11;;;;;;;;;;;24.00;56.60;;;;;;7011847;27;19931;-65
2021/03/31 16:51:32;;;;;;;;;;;23.70;59.40;;;;;;7023034;27;19915;-65
2021/03/31 16:54:53;;;;;;;;;;;23.60;61.80;;;;;;7034553;27;19916;-65
2021/03/31 16:58:13;;;;;;;;;;;23.20;61.50;;;;;;7031904;27;19922;-64
2021/03/31 17:01:35;;;;;;;;;;;22.80;63.10;;;;;;7051886;27;19916;-66
2021/03/31 17:04:56;;;;;;;;;;;22.40;59.30;;;;;;7013092;27;19947;-66
2021/03/31 17:08:16;;;;;;;;;;;22.30;60.90;;;;;;7018301;27;20305;-65
2021/03/31 17:11:37;;;;;;;;;;;22.20;61.20;;;;;;7010809;27;19918;-65
2021/03/31 17:14:58;;;;;;;;;;;21.90;63.00;;;;;;7008523;27;20557;-64
2021/03/31 17:18:19;;;;;;;;;;;21.80;60.00;;;;;;7011351;27;19927;-67
2021/03/31 17:21:40;;;;;;;;;;;21.50;59.70;;;;;;7020994;27;19916;-67
2021/03/31 17:25:02;;;;;;;;;;;21.20;64.80;;;;;;7017280;27;19957;-66
2021/03/31 17:28:23;;;;;;;;;;;21.00;64.60;;;;;;7018718;27;19916;-66
2021/03/31 17:31:44;;;;;;;;;;;20.80;67.80;;;;;;7017152;27;19954;-67
2021/03/31 17:35:05;;;;;;;;;;;20.50;69.60;;;;;;7032518;27;20225;-67
2021/03/31 17:38:25;;;;;;;;;;;20.20;72.10;;;;;;6997360;27;19930;-66
2021/03/31 17:41:47;;;;;;;;;;;19.90;71.40;;;;;;7016205;27;19912;-66
2021/03/31 17:45:08;;;;;;;;;;;19.60;69.80;;;;;;6997338;27;20518;-66
2021/03/31 17:48:30;;;;;;;;;;;19.50;71.50;;;;;;7013884;27;19916;-67
2021/03/31 17:51:51;;;;;;;;;;;19.20;72.60;;;;;;7001212;27;19938;-66
2021/03/31 17:55:12;;;;;;;;;;;19.00;69.50;;;;;;6999175;27;19912;-67
2021/03/31 17:58:33;;;;;;;;;;;18.90;69.90;;;;;;6992175;27;19938;-67
2021/03/31 18:01:55;;;;;;;;;;;18.90;69.10;;;;;;7003702;28;19912;-66
2021/03/31 18:05:16;;;;;;;;;;;18.80;70.00;;;;;;6997738;27;19915;-66
2021/03/31 18:08:37;;;;;;;;;;;18.70;69.80;;;;;;6989761;27;19916;-67
2021/03/31 18:11:58;;;;;;;;;;;18.70;71.30;;;;;;6995973;27;20039;-68
2021/03/31 18:15:39;;;;;;;;;;;18.40;73.60;;;;;;7006296;27;19907;-64
2021/03/31 18:19:01;;;;;;;;;;;18.30;72.00;;;;;;7010544;27;19923;-66
2021/03/31 18:22:22;;;;;;;;;;;18.10;72.80;;;;;;6999833;27;19920;-64
2021/03/31 18:25:43;;;;;;;;;;;17.80;74.30;;;;;;7021750;27;19912;-66
2021/03/31 18:29:04;;;;;;;;;;;17.60;72.00;;;;;;6996052;27;19926;-63
2021/03/31 18:32:25;;;;;;;;;;;17.40;74.40;;;;;;7036071;27;20008;-65
2021/03/31 18:35:46;;;;;;;;;;;17.40;73.80;;;;;;6999169;27;20352;-64
2021/03/31 18:39:07;;;;;;;;;;;17.20;75.20;;;;;;7002936;27;20007;-66
2021/03/31 18:42:44;;;;;;;;;;;17.00;76.20;;;;;;7019684;27;19919;-68
2021/03/31 18:46:05;;;;;;;;;;;16.80;76.40;;;;;;7003889;27;19922;-67
2021/03/31 18:49:26;;;;;;;;;;;16.70;77.60;;;;;;7009337;27;19954;-65
2021/03/31 18:52:46;;;;;;;;;;;16.60;79.10;;;;;;7031884;27;20275;-66
2021/03/31 18:56:07;;;;;;;;;;;16.30;79.20;;;;;;7032951;27;19911;-68
2021/03/31 18:59:28;;;;;;;;;;;16.20;79.50;;;;;;7011537;27;19926;-68
2021/03/31 19:02:49;;;;;;;;;;;16.10;79.80;;;;;;7005153;27;19922;-68
2021/03/31 19:06:10;;;;;;;;;;;16.00;79.30;;;;;;6981525;28;19924;-67
2021/03/31 19:13:10;;;;;;;;;;;15.80;80.80;;;;;;7001085;27;19919;-66
2021/03/31 19:16:31;;;;;;;;;;;15.60;80.70;;;;;;6986462;28;19930;-68
2021/03/31 19:19:52;;;;;;;;;;;15.50;80.30;;;;;;7001581;28;20279;-67
2021/03/31 19:23:14;;;;;;;;;;;15.40;80.50;;;;;;7000178;28;19916;-67
2021/03/31 19:26:35;;;;;;;;;;;15.30;81.20;;;;;;7001282;27;19919;-67
2021/03/31 19:29:56;;;;;;;;;;;15.20;81.60;;;;;;6993407;28;19935;-69
2021/03/31 19:33:18;;;;;;;;;;;15.20;82.00;;;;;;7007134;28;19951;-67
2021/03/31 19:36:39;;;;;;;;;;;15.10;82.00;;;;;;7004507;28;19965;-67
2021/03/31 19:39:59;;;;;;;;;;;15.00;80.30;;;;;;6992294;28;19920;-66
2021/03/31 19:43:20;;;;;;;;;;;14.90;82.10;;;;;;6997143;28;19916;-67
2021/03/31 19:46:41;;;;;;;;;;;14.90;82.70;;;;;;6993161;28;19931;-66
2021/03/31 19:50:03;;;;;;;;;;;14.80;81.30;;;;;;6997579;28;19977;-70
2021/03/31 19:53:30;;;;;;;;;;;14.90;81.30;;;;;;7014557;28;19954;-70
2021/03/31 19:56:51;;;;;;;;;;;14.70;82.30;;;;;;7012061;28;19919;-69
2021/03/31 20:00:13;;;;;;;;;;;14.70;83.10;;;;;;6994835;28;20390;-69
2021/03/31 20:03:34;;;;;;;;;;;14.40;83.40;;;;;;6994305;28;19916;-69
2021/03/31 20:06:55;;;;;;;;;;;14.40;85.00;;;;;;7015681;27;19912;-69
2021/03/31 20:10:16;;;;;;;;;;;14.30;85.20;;;;;;7027021;27;20344;-69
2021/03/31 20:13:36;;;;;;;;;;;14.20;81.50;;;;;;7032706;27;19919;-70
2021/03/31 20:16:57;;;;;;;;;;;14.20;83.50;;;;;;7007380;27;20026;-69
2021/03/31 20:20:19;;;;;;;;;;;14.10;85.10;;;;;;7017601;27;19996;-69
2021/03/31 20:23:40;;;;;;;;;;;14.10;85.20;;;;;;7014393;27;20034;-69
2021/03/31 20:27:03;;;;;;;;;;;14.00;84.10;;;;;;7007878;27;19927;-67
2021/03/31 20:30:24;;;;;;;;;;;14.00;86.00;;;;;;7033167;27;20379;-67
2021/03/31 20:33:57;;;;;;;;;;;13.90;87.00;;;;;;7005840;27;19926;-68
2021/03/31 20:37:18;;;;;;;;;;;13.70;88.30;;;;;;7020343;27;19920;-67
2021/03/31 20:40:39;;;;;;;;;;;13.60;87.80;;;;;;7007242;27;19915;-69
2021/03/31 20:44:03;;;;;;;;;;;13.60;85.60;;;;;;7022009;28;19912;-69